Time;durP1;ratioP1;P1;durP2;ratioP2;P2;SDS_P1;SDS_P2;PMS_P1;PMS_P2;Temp;Humidity;BMP_temperature;BMP_pressure;BME280_temperature;BME280_humidity;BME280_pressure;Samples;Min_cycle;Max_cycle;Signal;HPM_P1;HPM_P2
2023/06/07 00:01:17;;;;;;;4.32;2.40;;;20.50;59.70;;;;;;5021158;28;20205;-68
2023/06/07 00:03:47;;;;;;;3.63;2.35;;;20.40;59.50;;;;;;5019060;28;20450;-68
2023/06/07 00:06:14;;;;;;;3.08;2.20;;;20.40;59.80;;;;;;5054699;28;20169;-67
2023/06/07 00:08:43;;;;;;;3.45;2.45;;;20.30;59.90;;;;;;5034997;28;20200;-67
2023/06/07 00:11:10;;;;;;;3.67;2.47;;;20.30;60.20;;;;;;5035067;28;20226;-67
2023/06/07 00:13:39;;;;;;;2.90;2.40;;;20.30;60.40;;;;;;5047739;28;20185;-67
2023/06/07 00:16:07;;;;;;;3.15;2.50;;;20.20;60.60;;;;;;5038249;28;20180;-67
2023/06/07 00:18:35;;;;;;;2.78;2.25;;;20.20;60.90;;;;;;5038067;28;20197;-68
2023/06/07 00:21:04;;;;;;;3.58;2.65;;;20.10;61.20;;;;;;5053865;28;23176;-67
2023/06/07 00:23:35;;;;;;;3.47;2.75;;;20.10;61.70;;;;;;5038039;28;20308;-67
2023/06/07 00:26:03;;;;;;;3.25;2.67;;;20.00;61.30;;;;;;5048084;28;20173;-68
2023/06/07 00:28:29;;;;;;;3.45;2.70;;;20.00;62.20;;;;;;5043217;28;20231;-66
2023/06/07 00:31:02;;;;;;;4.03;2.70;;;19.90;62.10;;;;;;5034425;28;20205;-67
2023/06/07 00:33:32;;;;;;;5.32;2.58;;;19.80;63.60;;;;;;5036019;28;20181;-67
2023/06/07 00:36:03;;;;;;;3.00;2.60;;;19.80;63.00;;;;;;5036425;28;20761;-67
2023/06/07 00:38:28;;;;;;;4.85;2.42;;;19.70;63.20;;;;;;5036028;28;20177;-67
2023/06/07 00:40:54;;;;;;;2.50;2.20;;;19.60;62.90;;;;;;5034783;28;20212;-67
2023/06/07 00:43:20;;;;;;;2.72;2.35;;;19.60;63.10;;;;;;5030290;28;20173;-67
2023/06/07 00:45:48;;;;;;;2.53;2.25;;;19.50;63.20;;;;;;5036341;28;20181;-67
2023/06/07 00:48:16;;;;;;;2.53;2.33;;;19.50;63.50;;;;;;5032526;28;20169;-67
2023/06/07 00:50:46;;;;;;;2.72;2.42;;;19.50;63.90;;;;;;5032802;28;21025;-70
2023/06/07 00:53:12;;;;;;;4.53;2.58;;;19.50;64.70;;;;;;5048878;28;20178;-67
2023/06/07 00:55:38;;;;;;;3.72;2.60;;;19.60;64.50;;;;;;5034553;28;20188;-67
2023/06/07 00:58:05;;;;;;;3.30;2.67;;;19.60;64.60;;;;;;5039354;28;20201;-67
2023/06/07 01:00:31;;;;;;;3.17;2.60;;;19.60;64.70;;;;;;5037059;28;20524;-68
2023/06/07 01:02:57;;;;;;;3.88;2.50;;;19.60;64.80;;;;;;5051618;28;20166;-67
2023/06/07 01:05:23;;;;;;;3.33;2.30;;;19.60;64.90;;;;;;5053488;28;20370;-67
2023/06/07 01:07:50;;;;;;;3.45;2.53;;;19.60;65.70;;;;;;5029926;28;20247;-67
2023/06/07 01:10:18;;;;;;;3.22;2.42;;;19.70;65.10;;;;;;5042959;28;20174;-68
2023/06/07 01:12:44;;;;;;;2.53;2.00;;;19.70;65.50;;;;;;5036686;28;20170;-68
2023/06/07 01:15:16;;;;;;;3.00;2.17;;;19.70;65.20;;;;;;5049299;28;20341;-68
2023/06/07 01:17:44;;;;;;;3.40;2.40;;;19.60;65.70;;;;;;5042633;28;20173;-68
2023/06/07 01:20:17;;;;;;;2.83;2.45;;;19.60;65.60;;;;;;5035982;28;20212;-68
2023/06/07 01:22:45;;;;;;;2.80;2.40;;;19.60;66.00;;;;;;5035701;28;20182;-68
2023/06/07 01:25:13;;;;;;;2.45;2.22;;;19.60;65.70;;;;;;5035962;28;20165;-68
2023/06/07 01:27:43;;;;;;;3.20;2.60;;;19.50;66.00;;;;;;5047183;28;20178;-68
2023/06/07 01:30:10;;;;;;;3.40;2.53;;;19.50;66.00;;;;;;5041489;28;20260;-67
2023/06/07 01:32:40;;;;;;;2.78;2.33;;;19.50;66.10;;;;;;5053339;28;20205;-68
2023/06/07 01:35:12;;;;;;;4.35;2.38;;;19.50;66.30;;;;;;5037213;28;20177;-68
2023/06/07 01:37:40;;;;;;;4.13;2.63;;;19.50;67.00;;;;;;5035615;28;20188;-67
2023/06/07 01:40:08;;;;;;;4.15;2.30;;;19.50;66.70;;;;;;5031245;28;20193;-67
2023/06/07 01:42:35;;;;;;;3.53;2.70;;;19.50;66.70;;;;;;5029280;28;20267;-66
2023/06/07 01:45:02;;;;;;;2.80;2.33;;;19.50;66.80;;;;;;5031652;28;20178;-67
2023/06/07 01:47:31;;;;;;;4.05;2.60;;;19.50;66.60;;;;;;5029790;28;20199;-69
2023/06/07 01:49:57;;;;;;;3.15;2.30;;;19.50;67.00;;;;;;5037941;28;20212;-67
2023/06/07 01:52:28;;;;;;;2.95;2.38;;;19.50;66.90;;;;;;5038526;28;20201;-68
2023/06/07 01:54:57;;;;;;;2.78;2.25;;;19.50;67.10;;;;;;5035862;28;20280;-68
2023/06/07 01:57:28;;;;;;;2.92;2.28;;;19.50;67.20;;;;;;5033426;28;20194;-67
2023/06/07 02:00:12;;;;;;;3.10;2.35;;;19.50;67.60;;;;;;5026188;28;20217;-68
2023/06/07 02:02:38;;;;;;;3.13;2.25;;;19.50;67.50;;;;;;5019410;28;20265;-67
2023/06/07 02:05:11;;;;;;;3.00;2.30;;;19.50;67.70;;;;;;5026017;28;20359;-67
2023/06/07 02:07:51;;;;;;;2.55;2.17;;;19.50;68.40;;;;;;5047277;28;20181;-67
2023/06/07 02:10:20;;;;;;;3.20;2.45;;;19.50;69.00;;;;;;5040322;28;20181;-68
2023/06/07 02:12:49;;;;;;;3.15;2.58;;;19.50;68.20;;;;;;5056662;28;20308;-68
2023/06/07 02:15:15;;;;;;;3.15;2.40;;;19.50;68.70;;;;;;5040688;28;20185;-67
2023/06/07 02:18:07;;;;;;;2.35;2.15;;;19.50;68.60;;;;;;5056523;28;20550;-68
2023/06/07 02:20:35;;;;;;;2.88;2.33;;;19.50;70.20;;;;;;5036305;28;20205;-68
2023/06/07 02:23:03;;;;;;;3.15;2.58;;;19.50;68.90;;;;;;5040217;28;20261;-67
2023/06/07 02:25:30;;;;;;;2.88;2.58;;;19.50;69.10;;;;;;5028075;28;20194;-67
2023/06/07 02:27:57;;;;;;;2.50;2.30;;;19.50;69.30;;;;;;5037141;28;20205;-67
2023/06/07 02:30:25;;;;;;;3.20;2.17;;;19.50;69.50;;;;;;5033210;28;20227;-68
2023/06/07 02:32:53;;;;;;;2.53;2.33;;;19.50;69.60;;;;;;5040129;28;20256;-67
2023/06/07 02:35:20;;;;;;;3.45;2.60;;;19.50;69.80;;;;;;5038244;28;20201;-67
2023/06/07 02:37:46;;;;;;;2.50;2.13;;;19.50;70.00;;;;;;5037070;28;20292;-67
2023/06/07 02:40:12;;;;;;;2.60;2.30;;;19.50;70.20;;;;;;5041777;28;20277;-67
2023/06/07 02:42:43;;;;;;;2.70;2.35;;;19.50;70.30;;;;;;5037908;28;20177;-68
2023/06/07 02:45:10;;;;;;;3.30;2.70;;;19.50;71.20;;;;;;5053767;28;20201;-68
2023/06/07 02:47:35;;;;;;;3.45;2.60;;;19.50;70.40;;;;;;5047137;28;20232;-68
2023/06/07 02:50:03;;;;;;;6.10;2.95;;;19.50;70.70;;;;;;5050810;28;20178;-69
2023/06/07 02:52:29;;;;;;;3.45;2.85;;;19.50;70.60;;;;;;5036870;28;20202;-68
2023/06/07 02:54:57;;;;;;;3.13;2.40;;;19.50;70.50;;;;;;5035616;28;20292;-68
2023/06/07 02:57:25;;;;;;;5.45;2.70;;;19.50;70.40;;;;;;5036333;28;20180;-67
2023/06/07 02:59:52;;;;;;;3.15;2.58;;;19.50;70.50;;;;;;5039672;28;20201;-67
2023/06/07 03:02:18;;;;;;;3.05;2.35;;;19.50;70.70;;;;;;5037088;28;20207;-67
2023/06/07 03:04:46;;;;;;;3.58;2.60;;;19.50;70.90;;;;;;5034620;28;20297;-67
2023/06/07 03:07:14;;;;;;;3.55;2.72;;;19.50;70.90;;;;;;5036754;28;20188;-67
2023/06/07 03:09:43;;;;;;;2.90;2.53;;;19.50;71.10;;;;;;5036342;28;20189;-68
2023/06/07 03:12:11;;;;;;;2.70;2.40;;;19.50;71.30;;;;;;5039048;28;20259;-67
2023/06/07 03:14:38;;;;;;;2.97;2.67;;;19.50;71.00;;;;;;5031751;28;20190;-67
2023/06/07 03:17:08;;;;;;;3.05;2.53;;;19.50;70.80;;;;;;5035238;28;20220;-67
2023/06/07 03:19:36;;;;;;;4.15;2.70;;;19.50;70.90;;;;;;5033546;28;20443;-67
2023/06/07 03:22:06;;;;;;;4.53;2.63;;;19.40;70.90;;;;;;5042913;28;20296;-67
2023/06/07 03:24:34;;;;;;;2.92;2.42;;;19.40;71.00;;;;;;5034600;28;20205;-67
2023/06/07 03:27:00;;;;;;;3.08;2.55;;;19.40;71.00;;;;;;5019131;28;20232;-68
2023/06/07 03:29:31;;;;;;;4.18;2.55;;;19.40;71.00;;;;;;5054207;28;20188;-68
2023/06/07 03:31:59;;;;;;;3.03;2.60;;;19.40;71.40;;;;;;5032827;28;20211;-67
2023/06/07 03:34:29;;;;;;;3.60;2.45;;;19.40;71.30;;;;;;5041508;28;20195;-67
2023/06/07 03:36:58;;;;;;;3.83;2.63;;;19.30;71.10;;;;;;5035123;28;20277;-67
2023/06/07 03:39:24;;;;;;;4.05;2.30;;;19.40;71.60;;;;;;5035405;28;20260;-67
2023/06/07 03:41:50;;;;;;;4.47;2.83;;;19.30;71.40;;;;;;5052114;28;20291;-66
2023/06/07 03:44:15;;;;;;;4.43;3.03;;;19.30;71.60;;;;;;5049764;28;20196;-67
2023/06/07 03:46:42;;;;;;;3.55;2.85;;;19.40;71.90;;;;;;5036844;28;20181;-67
2023/06/07 03:49:07;;;;;;;3.13;2.42;;;19.30;72.00;;;;;;5050016;28;20176;-68
2023/06/07 03:51:33;;;;;;;2.80;2.50;;;19.40;72.20;;;;;;5037258;28;20272;-67
2023/06/07 03:54:01;;;;;;;3.05;2.60;;;19.40;72.30;;;;;;5053117;28;20263;-67
2023/06/07 03:56:27;;;;;;;3.13;2.47;;;19.40;72.30;;;;;;5038740;28;20181;-67
2023/06/07 03:58:55;;;;;;;3.67;2.58;;;19.40;72.50;;;;;;5038063;28;20264;-67
2023/06/07 04:01:25;;;;;;;4.82;2.55;;;19.40;72.60;;;;;;5031011;28;20205;-68
2023/06/07 04:03:51;;;;;;;3.50;2.70;;;19.40;72.70;;;;;;5027700;28;20221;-67
2023/06/07 04:06:20;;;;;;;3.28;2.63;;;19.40;72.90;;;;;;5035235;28;20217;-67
2023/06/07 04:08:46;;;;;;;2.85;2.33;;;19.40;73.00;;;;;;5038082;28;20169;-66
2023/06/07 04:11:12;;;;;;;2.83;2.40;;;19.40;73.30;;;;;;5034519;28;20202;-67
2023/06/07 04:13:37;;;;;;;4.25;2.63;;;19.40;73.70;;;;;;5042071;28;20189;-67
2023/06/07 04:16:07;;;;;;;3.15;2.45;;;19.40;73.90;;;;;;5067537;28;20185;-67
2023/06/07 04:18:35;;;;;;;3.03;2.72;;;19.40;74.20;;;;;;5021636;28;20191;-67
2023/06/07 04:21:03;;;;;;;3.97;2.97;;;19.40;74.20;;;;;;5018435;28;20201;-66
2023/06/07 04:23:29;;;;;;;3.55;3.00;;;19.40;74.00;;;;;;5035032;28;20197;-67
2023/06/07 04:25:58;;;;;;;3.42;2.58;;;19.40;74.20;;;;;;5037411;28;20354;-67
2023/06/07 04:28:24;;;;;;;3.53;2.78;;;19.30;74.60;;;;;;5037710;28;20206;-66
2023/06/07 04:30:53;;;;;;;4.65;2.95;;;19.30;75.00;;;;;;5054105;28;20208;-66
2023/06/07 04:33:20;;;;;;;5.18;3.05;;;19.30;75.60;;;;;;5034499;28;20173;-68
2023/06/07 04:35:48;;;;;;;3.45;3.00;;;19.20;75.40;;;;;;5052154;28;20189;-72
2023/06/07 04:38:16;;;;;;;3.97;2.78;;;19.30;76.70;;;;;;5036231;28;20208;-78
2023/06/07 04:40:49;;;;;;;3.75;3.05;;;19.20;77.40;;;;;;5035385;28;20204;-69
2023/06/07 04:43:18;;;;;;;5.18;3.88;;;19.20;78.20;;;;;;5031886;28;20203;-70
2023/06/07 04:45:54;;;;;;;6.90;5.72;;;19.10;78.20;;;;;;5034410;28;20184;-70
2023/06/07 04:48:22;;;;;;;5.13;3.92;;;19.00;79.10;;;;;;5039724;28;20183;-71
2023/06/07 04:50:49;;;;;;;5.28;3.30;;;19.00;80.20;;;;;;5044322;28;20178;-68
2023/06/07 04:53:19;;;;;;;5.68;3.67;;;19.00;80.70;;;;;;5033005;28;20174;-69
2023/06/07 04:55:48;;;;;;;4.72;3.20;;;19.00;81.60;;;;;;5033658;28;20406;-70
2023/06/07 04:58:18;;;;;;;3.83;3.13;;;18.90;81.70;;;;;;5036151;28;20177;-69
2023/06/07 05:00:45;;;;;;;7.15;3.17;;;18.90;83.30;;;;;;5037230;28;20201;-71
2023/06/07 05:03:21;;;;;;;4.13;3.10;;;18.90;82.50;;;;;;5037374;28;20255;-71
2023/06/07 05:05:49;;;;;;;4.60;3.35;;;18.90;82.60;;;;;;5049113;28;20177;-69
2023/06/07 05:08:17;;;;;;;5.45;3.70;;;18.90;82.90;;;;;;5023982;28;20174;-69
2023/06/07 05:10:46;;;;;;;5.82;3.80;;;18.90;83.60;;;;;;5035495;28;20197;-69
2023/06/07 05:13:12;;;;;;;5.28;3.70;;;18.90;84.90;;;;;;5042095;28;20194;-67
2023/06/07 05:15:39;;;;;;;5.22;3.88;;;18.90;85.80;;;;;;5036473;28;20197;-67
2023/06/07 05:18:07;;;;;;;5.40;3.60;;;18.90;86.00;;;;;;5036638;28;20237;-66
2023/06/07 05:20:33;;;;;;;4.35;3.17;;;18.90;86.40;;;;;;5049421;28;20197;-67
2023/06/07 05:22:58;;;;;;;5.00;3.50;;;18.90;86.30;;;;;;5039129;28;20193;-67
2023/06/07 05:25:24;;;;;;;5.18;3.30;;;18.90;86.20;;;;;;5039203;28;20177;-67
2023/06/07 05:27:50;;;;;;;4.03;3.20;;;18.80;86.60;;;;;;5050836;28;20173;-67
2023/06/07 05:30:18;;;;;;;3.80;3.03;;;18.80;86.90;;;;;;5039334;28;20184;-67
2023/06/07 05:32:44;;;;;;;4.95;3.58;;;18.80;87.20;;;;;;5020229;28;20173;-67
2023/06/07 05:35:11;;;;;;;5.00;3.15;;;18.80;87.20;;;;;;5053422;28;20208;-67
2023/06/07 05:37:37;;;;;;;4.80;2.88;;;18.80;87.50;;;;;;5057222;28;20191;-67
2023/06/07 05:40:07;;;;;;;5.28;3.30;;;18.70;87.70;;;;;;5039756;28;20338;-67
2023/06/07 05:42:38;;;;;;;4.05;3.10;;;18.70;87.90;;;;;;5048155;28;20300;-66
2023/06/07 05:45:09;;;;;;;4.35;3.10;;;18.70;88.50;;;;;;5042492;28;20236;-67
2023/06/07 05:47:35;;;;;;;4.07;3.33;;;18.60;89.40;;;;;;5028777;28;20197;-67
2023/06/07 05:50:04;;;;;;;4.45;3.10;;;18.60;89.30;;;;;;5040821;28;20269;-67
2023/06/07 05:52:30;;;;;;;3.72;3.10;;;18.60;89.90;;;;;;5056201;28;20173;-67
2023/06/07 05:54:57;;;;;;;4.13;3.03;;;18.60;90.00;;;;;;5057015;28;20215;-67
2023/06/07 05:57:23;;;;;;;4.50;3.30;;;18.60;90.20;;;;;;5056240;28;20216;-67
2023/06/07 05:59:51;;;;;;;4.93;3.25;;;18.60;90.30;;;;;;5056085;28;20232;-67
2023/06/07 06:02:20;;;;;;;6.15;3.05;;;18.60;90.40;;;;;;5046395;28;20283;-67
2023/06/07 06:04:48;;;;;;;4.95;3.30;;;18.60;90.60;;;;;;5039919;28;20185;-68
2023/06/07 06:07:17;;;;;;;3.97;3.35;;;18.60;90.80;;;;;;5040166;28;20226;-67
2023/06/07 06:09:43;;;;;;;3.42;3.03;;;18.60;91.30;;;;;;5039879;28;20178;-67
2023/06/07 06:12:12;;;;;;;4.95;3.58;;;18.60;91.40;;;;;;5039529;28;20217;-68
2023/06/07 06:14:40;;;;;;;4.25;3.15;;;18.60;91.60;;;;;;5056304;28;20177;-69
2023/06/07 06:17:06;;;;;;;4.85;3.72;;;18.70;92.20;;;;;;5056780;28;20180;-68
2023/06/07 06:19:36;;;;;;;4.18;3.17;;;18.70;92.00;;;;;;5052234;28;20202;-67
2023/06/07 06:22:02;;;;;;;4.20;3.08;;;18.70;92.40;;;;;;5036839;28;20280;-67
2023/06/07 06:24:30;;;;;;;4.90;3.50;;;18.70;92.40;;;;;;5056303;28;20216;-67
2023/06/07 06:26:56;;;;;;;4.82;3.28;;;18.80;92.80;;;;;;5034642;28;20174;-68
2023/06/07 06:29:22;;;;;;;6.38;3.22;;;18.80;92.50;;;;;;5047577;28;20373;-68
2023/06/07 06:31:47;;;;;;;4.07;2.88;;;18.80;92.50;;;;;;5039740;28;20182;-68
2023/06/07 06:34:15;;;;;;;3.90;3.33;;;18.90;92.60;;;;;;5035612;28;20247;-67
2023/06/07 06:36:41;;;;;;;4.38;3.40;;;18.90;92.70;;;;;;5036832;28;20288;-67
2023/06/07 06:39:08;;;;;;;4.25;2.70;;;18.80;92.80;;;;;;5038927;28;20220;-67
2023/06/07 06:41:36;;;;;;;4.82;3.60;;;18.80;92.90;;;;;;5037746;28;20194;-68
2023/06/07 06:44:01;;;;;;;4.57;3.40;;;18.80;93.20;;;;;;5038355;28;20363;-67
2023/06/07 06:46:29;;;;;;;8.65;3.60;;;18.80;93.00;;;;;;5038338;28;20182;-67
2023/06/07 06:48:55;;;;;;;5.60;3.65;;;18.80;93.10;;;;;;5038236;28;20193;-68
2023/06/07 06:51:21;;;;;;;5.95;3.47;;;18.70;93.30;;;;;;5053495;28;20201;-67
2023/06/07 06:53:49;;;;;;;5.70;3.40;;;18.70;93.50;;;;;;5055411;28;20231;-68
2023/06/07 06:56:14;;;;;;;4.75;3.33;;;18.70;93.90;;;;;;5039987;28;20234;-68
2023/06/07 06:58:42;;;;;;;7.47;3.50;;;18.70;93.70;;;;;;5023075;28;20289;-68
2023/06/07 07:01:15;;;;;;;10.55;3.70;;;18.70;93.70;;;;;;5038139;28;20227;-68
2023/06/07 07:03:43;;;;;;;4.75;3.45;;;18.70;94.30;;;;;;5044074;28;20197;-67
2023/06/07 07:06:08;;;;;;;6.65;3.88;;;18.70;93.90;;;;;;5045999;28;20212;-68
2023/06/07 07:08:37;;;;;;;4.80;3.53;;;18.70;94.30;;;;;;5038087;28;20174;-68
2023/06/07 07:11:05;;;;;;;5.70;3.22;;;18.70;94.50;;;;;;5054137;28;20205;-66
2023/06/07 07:13:33;;;;;;;4.43;3.50;;;18.70;94.40;;;;;;5038768;28;20272;-67
2023/06/07 07:16:01;;;;;;;5.65;3.63;;;18.70;94.50;;;;;;5053534;28;20181;-67
2023/06/07 07:18:27;;;;;;;4.57;3.35;;;18.70;94.80;;;;;;5022754;28;20173;-67
2023/06/07 07:20:57;;;;;;;6.32;3.78;;;18.80;95.00;;;;;;5038312;28;20220;-67
2023/06/07 07:23:22;;;;;;;4.53;3.78;;;18.80;95.30;;;;;;5054867;28;20193;-67
2023/06/07 07:25:48;;;;;;;4.95;3.90;;;18.80;95.60;;;;;;5055319;28;20173;-68
2023/06/07 07:28:14;;;;;;;5.22;3.83;;;18.90;95.80;;;;;;5051542;28;20201;-67
2023/06/07 07:30:42;;;;;;;4.47;3.78;;;18.90;95.70;;;;;;5055235;28;20268;-68
2023/06/07 07:33:07;;;;;;;6.10;4.05;;;18.90;95.90;;;;;;5054921;28;20200;-67
2023/06/07 07:35:33;;;;;;;5.32;4.00;;;18.90;96.10;;;;;;5038857;28;20188;-67
2023/06/07 07:38:01;;;;;;;5.40;3.90;;;19.00;96.40;;;;;;5030142;28;20178;-66
2023/06/07 07:40:26;;;;;;;8.77;4.40;;;19.00;97.00;;;;;;5037638;28;20201;-67
2023/06/07 07:42:52;;;;;;;7.20;4.03;;;19.00;97.30;;;;;;5037471;28;20178;-66
2023/06/07 07:45:20;;;;;;;4.65;3.67;;;19.10;97.70;;;;;;5036773;28;20173;-67
2023/06/07 07:47:46;;;;;;;5.72;4.20;;;19.20;98.20;;;;;;5035105;28;20174;-67
2023/06/07 07:50:11;;;;;;;7.05;4.55;;;19.30;97.70;;;;;;5030085;28;20178;-68
2023/06/07 07:52:37;;;;;;;6.50;4.28;;;19.30;97.80;;;;;;5022572;28;20292;-68
2023/06/07 07:55:03;;;;;;;9.07;4.47;;;19.40;98.10;;;;;;5037233;28;20196;-69
2023/06/07 07:57:31;;;;;;;5.47;4.05;;;19.50;98.60;;;;;;5035081;28;20312;-68
2023/06/07 07:59:59;;;;;;;6.70;3.92;;;19.50;98.90;;;;;;5044284;28;20197;-68
2023/06/07 08:02:25;;;;;;;4.63;3.85;;;19.60;99.10;;;;;;5049428;28;20208;-68
2023/06/07 08:04:53;;;;;;;6.25;4.40;;;19.70;99.30;;;;;;5054369;28;20176;-68
2023/06/07 08:07:19;;;;;;;9.13;4.10;;;19.70;99.70;;;;;;5044396;28;20265;-68
2023/06/07 08:09:45;;;;;;;7.20;4.40;;;19.80;99.90;;;;;;5033686;28;20305;-68
2023/06/07 08:12:10;;;;;;;7.00;4.43;;;19.90;99.90;;;;;;5037445;28;20236;-68
2023/06/07 08:14:38;;;;;;;9.35;4.30;;;19.90;99.90;;;;;;5061378;28;20236;-68
2023/06/07 08:17:09;;;;;;;5.40;3.92;;;20.00;99.90;;;;;;5039912;28;20189;-68
2023/06/07 08:19:37;;;;;;;5.85;4.18;;;20.10;99.90;;;;;;5054199;28;20189;-68
2023/06/07 08:22:03;;;;;;;6.40;4.03;;;20.20;99.90;;;;;;5033668;28;20197;-68
2023/06/07 08:24:29;;;;;;;5.10;3.72;;;20.30;99.90;;;;;;5037141;28;20445;-68
2023/06/07 08:26:54;;;;;;;4.78;3.53;;;20.40;99.90;;;;;;5037440;28;20166;-68
2023/06/07 08:29:20;;;;;;;6.47;3.97;;;20.60;99.90;;;;;;5037188;28;20471;-68
2023/06/07 08:31:48;;;;;;;6.15;4.35;;;20.70;99.90;;;;;;5047917;28;20284;-69
2023/06/07 08:34:14;;;;;;;4.63;3.90;;;20.90;99.90;;;;;;5053532;28;20185;-68
2023/06/07 08:36:39;;;;;;;5.95;3.88;;;21.00;99.90;;;;;;5053863;28;20242;-68
2023/06/07 08:39:07;;;;;;;4.85;3.70;;;21.20;99.90;;;;;;5052787;28;20180;-69
2023/06/07 08:41:32;;;;;;;4.20;3.55;;;21.40;99.90;;;;;;5044569;28;20196;-68
2023/06/07 08:44:00;;;;;;;5.88;4.32;;;21.50;99.90;;;;;;5054191;28;20177;-69
2023/06/07 08:46:30;;;;;;;5.03;3.88;;;21.60;99.90;;;;;;5037423;28;20187;-68
2023/06/07 08:49:00;;;;;;;4.13;3.45;;;21.80;99.60;;;;;;5035193;28;20279;-68
2023/06/07 08:51:28;;;;;;;6.20;3.53;;;21.90;99.40;;;;;;5044697;28;20209;-68
2023/06/07 08:54:00;;;;;;;5.22;3.25;;;22.00;99.10;;;;;;5035470;28;20196;-68
2023/06/07 08:56:28;;;;;;;3.90;3.25;;;22.10;98.70;;;;;;5032893;28;20174;-68
2023/06/07 08:58:57;;;;;;;3.70;3.28;;;22.10;98.20;;;;;;5031788;28;20193;-68
2023/06/07 09:01:23;;;;;;;5.13;3.30;;;22.20;98.10;;;;;;5050523;28;20201;-69
2023/06/07 09:03:52;;;;;;;3.95;2.92;;;22.20;97.90;;;;;;5036842;28;20231;-69
2023/06/07 09:06:22;;;;;;;3.20;2.92;;;22.30;97.90;;;;;;5036475;28;20201;-67
2023/06/07 09:08:50;;;;;;;3.83;3.20;;;22.50;97.90;;;;;;5049540;28;20235;-69
2023/06/07 09:11:16;;;;;;;4.53;3.40;;;22.50;97.90;;;;;;5041385;28;20169;-69
2023/06/07 09:13:42;;;;;;;3.80;3.30;;;22.70;97.70;;;;;;5052915;28;20204;-68
2023/06/07 09:16:13;;;;;;;3.65;3.15;;;22.80;97.40;;;;;;5033495;28;20246;-68
2023/06/07 09:18:55;;;;;;;6.32;3.05;;;22.90;97.30;;;;;;5025990;28;20336;-68
2023/06/07 09:21:26;;;;;;;4.10;2.90;;;23.10;97.10;;;;;;5049499;28;20235;-68
2023/06/07 09:23:52;;;;;;;5.55;3.33;;;23.10;96.80;;;;;;5040179;28;20284;-69
2023/06/07 09:26:24;;;;;;;3.95;3.17;;;23.30;96.70;;;;;;5037814;28;20178;-69
2023/06/07 09:28:52;;;;;;;6.10;3.13;;;23.40;96.50;;;;;;5050972;28;20264;-68
2023/06/07 09:31:29;;;;;;;4.55;3.28;;;23.50;96.20;;;;;;5036794;28;20181;-69
2023/06/07 09:33:55;;;;;;;4.05;3.33;;;23.60;95.70;;;;;;5025624;28;20264;-69
2023/06/07 09:36:21;;;;;;;4.07;3.60;;;23.60;95.70;;;;;;5050309;28;20231;-69
2023/06/07 09:38:47;;;;;;;3.85;3.22;;;23.70;95.80;;;;;;5034695;28;20169;-69
2023/06/07 09:41:15;;;;;;;4.93;3.53;;;23.80;95.40;;;;;;5030969;28;20274;-69
2023/06/07 09:43:49;;;;;;;6.32;3.40;;;23.80;95.30;;;;;;5036302;28;20184;-69
2023/06/07 09:46:16;;;;;;;3.90;2.92;;;23.90;94.90;;;;;;5028670;28;20162;-69
2023/06/07 09:48:46;;;;;;;4.65;3.25;;;24.00;95.00;;;;;;5051797;28;20463;-68
2023/06/07 09:51:15;;;;;;;4.68;3.40;;;24.10;94.80;;;;;;5036327;28;20181;-68
2023/06/07 09:54:01;;;;;;;4.57;3.63;;;24.10;94.80;;;;;;5036214;28;20233;-68
2023/06/07 09:56:29;;;;;;;4.20;3.28;;;24.30;94.50;;;;;;5036620;28;20288;-68
2023/06/07 09:59:12;;;;;;;4.20;3.00;;;24.30;94.50;;;;;;5052635;28;20284;-68
2023/06/07 10:01:42;;;;;;;3.28;2.70;;;24.40;93.80;;;;;;5052495;28;20239;-68
2023/06/07 10:04:09;;;;;;;3.28;2.90;;;24.40;93.80;;;;;;5052889;28;20246;-68
2023/06/07 10:06:43;;;;;;;3.22;2.92;;;24.40;93.60;;;;;;5052980;28;20173;-68
2023/06/07 10:09:13;;;;;;;3.72;2.88;;;24.40;93.20;;;;;;5052991;28;20173;-68
2023/06/07 10:11:41;;;;;;;3.08;2.78;;;24.30;92.80;;;;;;5040514;28;20182;-68
2023/06/07 10:14:10;;;;;;;3.78;2.92;;;24.30;92.60;;;;;;5022275;28;20210;-68
2023/06/07 10:16:50;;;;;;;4.07;2.90;;;24.20;92.40;;;;;;5036550;28;20202;-67
2023/06/07 10:19:18;;;;;;;2.97;2.67;;;24.10;92.40;;;;;;5036012;28;20185;-67
2023/06/07 10:21:50;;;;;;;4.00;2.95;;;24.10;92.50;;;;;;5045439;28;20209;-67
2023/06/07 10:24:32;;;;;;;5.97;3.05;;;24.00;92.80;;;;;;5035630;28;20185;-68
2023/06/07 10:27:08;;;;;;;3.47;3.00;;;23.90;92.60;;;;;;5054128;28;20270;-68
2023/06/07 10:29:55;;;;;;;3.55;3.25;;;23.90;92.80;;;;;;5036624;28;20166;-68
2023/06/07 10:32:29;;;;;;;3.75;2.80;;;23.90;92.70;;;;;;5036986;28;20292;-68
2023/06/07 10:35:02;;;;;;;3.85;3.40;;;23.80;92.70;;;;;;5038912;28;20168;-68
2023/06/07 10:37:33;;;;;;;4.57;3.33;;;23.80;92.60;;;;;;5048327;28;20195;-68
2023/06/07 10:40:05;;;;;;;4.03;3.03;;;23.70;92.60;;;;;;5041723;28;20204;-68
2023/06/07 10:42:33;;;;;;;3.20;2.90;;;23.60;92.60;;;;;;5043130;28;20205;-67
2023/06/07 10:45:01;;;;;;;4.25;2.97;;;23.60;92.80;;;;;;5059100;28;20260;-67
2023/06/07 10:47:29;;;;;;;4.15;3.20;;;23.60;93.00;;;;;;5043433;28;20177;-67
2023/06/07 10:49:55;;;;;;;3.45;2.92;;;23.60;93.20;;;;;;5049393;28;20208;-68
2023/06/07 10:52:22;;;;;;;3.20;2.90;;;23.60;93.30;;;;;;5055118;28;20264;-68
2023/06/07 10:54:48;;;;;;;3.95;3.15;;;23.60;93.40;;;;;;5052893;28;20194;-68
2023/06/07 10:57:30;;;;;;;3.70;3.22;;;23.70;93.60;;;;;;5022194;28;20181;-67
2023/06/07 11:00:26;;;;;;;3.47;3.17;;;23.80;93.70;;;;;;5025605;28;20179;-68
2023/06/07 11:03:12;;;;;;;3.83;3.42;;;23.90;93.80;;;;;;5046231;28;20198;-67
2023/06/07 11:05:53;;;;;;;4.65;3.78;;;23.90;93.90;;;;;;5023860;28;20256;-67
2023/06/07 11:08:30;;;;;;;6.45;4.07;;;23.90;93.70;;;;;;5035082;28;20245;-68
2023/06/07 11:11:16;;;;;;;5.70;3.70;;;23.90;94.00;;;;;;5030516;28;20176;-67
2023/06/07 11:13:44;;;;;;;5.25;4.40;;;23.90;94.10;;;;;;5036736;28;20205;-68
2023/06/07 11:16:33;;;;;;;5.57;4.28;;;24.00;94.60;;;;;;5031866;28;20200;-68
2023/06/07 11:19:09;;;;;;;4.82;4.10;;;24.10;95.00;;;;;;5038669;28;20201;-68
2023/06/07 11:21:53;;;;;;;5.07;4.07;;;24.20;95.00;;;;;;5040595;28;20219;-68
2023/06/07 11:24:24;;;;;;;5.22;4.70;;;24.40;95.10;;;;;;5038232;28;20177;-68
2023/06/07 11:26:50;;;;;;;6.40;4.55;;;24.50;95.00;;;;;;5055583;28;20178;-68
2023/06/07 11:29:19;;;;;;;5.50;4.70;;;24.60;94.90;;;;;;5054201;28;20181;-67
2023/06/07 11:31:56;;;;;;;6.25;5.10;;;24.70;94.70;;;;;;5038870;28;20180;-67
2023/06/07 11:34:22;;;;;;;8.02;4.63;;;24.70;94.60;;;;;;5037862;28;20192;-68
2023/06/07 11:36:48;;;;;;;6.10;4.82;;;24.80;94.60;;;;;;5038094;28;20287;-68
2023/06/07 11:39:17;;;;;;;5.50;4.80;;;24.80;94.60;;;;;;5045484;28;20188;-68
2023/06/07 11:41:43;;;;;;;6.18;4.93;;;24.80;94.70;;;;;;5048134;28;20201;-69
2023/06/07 11:44:12;;;;;;;6.07;4.53;;;24.90;95.10;;;;;;5033489;28;20181;-68
2023/06/07 11:46:37;;;;;;;6.72;4.95;;;25.10;95.50;;;;;;5045736;28;20231;-69
2023/06/07 11:49:03;;;;;;;5.28;4.78;;;25.20;95.20;;;;;;5034598;28;20193;-68
2023/06/07 11:51:32;;;;;;;6.57;4.28;;;25.40;94.90;;;;;;5027438;28;20181;-68
2023/06/07 11:53:58;;;;;;;6.70;5.10;;;25.40;94.80;;;;;;5054209;28;20441;-67
2023/06/07 11:56:25;;;;;;;5.35;4.60;;;25.40;94.30;;;;;;5036184;28;20434;-68
2023/06/07 11:58:51;;;;;;;5.40;4.50;;;25.40;94.10;;;;;;5033831;28;20181;-69
2023/06/07 12:01:20;;;;;;;6.63;4.60;;;25.40;93.90;;;;;;5054260;28;20197;-68
2023/06/07 12:03:48;;;;;;;6.43;4.93;;;25.30;93.80;;;;;;5054694;28;20235;-67
2023/06/07 12:06:18;;;;;;;6.18;5.07;;;25.20;93.90;;;;;;5049606;28;20309;-65
2023/06/07 12:08:48;;;;;;;6.75;5.35;;;25.20;93.80;;;;;;5037914;28;20209;-66
2023/06/07 12:11:14;;;;;;;5.50;4.65;;;25.20;94.20;;;;;;5036289;28;20445;-66
2023/06/07 12:13:42;;;;;;;5.70;4.63;;;25.20;94.40;;;;;;5030491;28;20189;-65
2023/06/07 12:16:08;;;;;;;5.25;4.57;;;25.20;94.20;;;;;;5037662;28;20178;-66
2023/06/07 12:18:38;;;;;;;6.35;5.03;;;25.30;94.50;;;;;;5043847;28;20174;-66
2023/06/07 12:21:07;;;;;;;5.82;4.70;;;25.40;94.90;;;;;;5020649;28;20197;-66
2023/06/07 12:23:37;;;;;;;6.78;5.20;;;25.60;95.00;;;;;;5054067;28;20173;-67
2023/06/07 12:26:08;;;;;;;7.30;5.65;;;25.80;94.50;;;;;;5050742;28;20173;-65
2023/06/07 12:28:37;;;;;;;5.97;5.13;;;25.90;94.00;;;;;;5045543;28;20207;-65
2023/06/07 12:31:02;;;;;;;8.95;5.78;;;25.80;93.50;;;;;;5037729;28;20173;-66
2023/06/07 12:33:29;;;;;;;9.18;5.55;;;25.70;93.10;;;;;;5037226;28;20204;-67
2023/06/07 12:35:58;;;;;;;8.70;5.97;;;25.50;93.00;;;;;;5037004;28;20173;-66
2023/06/07 12:38:25;;;;;;;7.63;5.78;;;25.40;92.90;;;;;;5037687;28;20227;-66
2023/06/07 12:40:50;;;;;;;8.45;6.30;;;25.20;92.80;;;;;;5034285;28;20206;-67
2023/06/07 12:43:16;;;;;;;6.38;5.70;;;25.00;93.10;;;;;;5030046;28;20173;-66
2023/06/07 12:45:44;;;;;;;7.13;5.82;;;24.90;93.00;;;;;;5036751;28;20173;-66
2023/06/07 12:48:09;;;;;;;7.05;6.35;;;24.70;93.20;;;;;;5054968;28;20177;-65
2023/06/07 12:50:35;;;;;;;7.72;6.80;;;24.50;93.30;;;;;;5053984;28;20193;-67
2023/06/07 12:53:06;;;;;;;7.22;6.25;;;24.40;93.60;;;;;;5053299;28;20194;-68
2023/06/07 12:55:34;;;;;;;7.05;5.80;;;24.20;94.10;;;;;;5053800;28;20169;-65